createdAt,value
2022-09-05T01:33:06.373Z,22.70
2022-09-05T01:37:33.593Z,22.60
2022-09-05T03:23:34.342Z,21.90
2022-09-05T03:57:11.773Z,21.80
2022-09-05T04:00:40.427Z,21.70
2022-09-05T04:08:11.497Z,21.70
2022-09-05T04:09:09.698Z,21.70
2022-09-05T04:23:16.778Z,21.60
2022-09-05T05:18:10.906Z,21.40
2022-09-05T05:19:05.122Z,21.40
2022-09-05T05:23:35.844Z,21.40
2022-09-05T05:26:55.895Z,21.30
2022-09-05T05:30:35.839Z,21.40
2022-09-05T05:33:54.348Z,21.30
2022-09-05T05:41:57.507Z,21.30
2022-09-05T05:46:22.998Z,21.30
2022-09-05T06:04:24.986Z,21.40
2022-09-05T06:14:59.472Z,21.50
2022-09-05T06:22:08.690Z,21.50
2022-09-05T06:30:46.231Z,21.60
2022-09-05T06:35:05.143Z,21.70
2022-09-05T07:58:13.638Z,23.90
2022-09-05T08:01:01.198Z,24.20
2022-09-05T08:03:56.171Z,24.30
2022-09-05T08:07:47.116Z,24.50
2022-09-05T08:10:08.203Z,24.60
2022-09-05T08:13:24.144Z,24.80
2022-09-05T08:16:19.491Z,25.00
2022-09-05T08:20:08.538Z,25.20
2022-09-05T08:23:07.360Z,25.30
2022-09-05T08:26:04.496Z,25.60
2022-09-05T08:29:02.909Z,25.70
2022-09-05T08:31:55.607Z,25.90
2022-09-05T08:34:49.673Z,26.00
2022-09-05T08:37:38.658Z,26.20
2022-09-05T08:40:32.202Z,26.30
2022-09-05T08:46:36.041Z,26.40
2022-09-05T08:46:51.665Z,26.60
2022-09-05T08:50:13.000Z,26.80
2022-09-05T08:53:28.151Z,27.00
2022-09-05T08:56:26.093Z,27.10
2022-09-05T08:59:33.073Z,27.30
2022-09-05T09:03:03.930Z,27.50
2022-09-05T09:06:40.354Z,27.70
2022-09-05T09:09:43.508Z,27.80
2022-09-05T09:13:08.655Z,28.00
2022-09-05T09:16:06.635Z,28.20
2022-09-05T09:19:10.511Z,28.30
2022-09-05T09:22:10.697Z,28.50
2022-09-05T09:25:15.890Z,28.70
2022-09-05T09:28:51.440Z,28.70
2022-09-05T09:32:01.172Z,28.90
2022-09-05T09:35:06.109Z,29.10
2022-09-05T09:38:31.898Z,29.20
2022-09-05T09:41:57.157Z,29.30
2022-09-05T09:45:22.534Z,29.40
2022-09-05T09:49:09.561Z,29.40
2022-09-05T09:52:56.440Z,29.50
2022-09-05T09:56:50.352Z,29.50
2022-09-05T10:00:11.300Z,29.50
2022-09-05T10:10:35.840Z,29.50
2022-09-05T10:10:50.235Z,29.50
2022-09-05T10:11:54.936Z,29.50
2022-09-05T10:15:23.200Z,29.50
2022-09-05T10:18:41.241Z,29.60
2022-09-05T10:25:48.459Z,29.60
2022-09-05T10:28:42.819Z,29.70
2022-09-05T10:35:09.784Z,29.70
2022-09-05T10:35:23.678Z,29.70
2022-09-05T10:38:15.384Z,29.80
2022-09-05T10:41:20.718Z,29.80
2022-09-05T10:44:13.544Z,29.80
2022-09-05T10:47:18.854Z,29.80
2022-09-05T10:50:24.583Z,29.90
2022-09-05T10:53:39.328Z,29.90
2022-09-05T10:56:35.395Z,30.00
2022-09-05T11:02:15.702Z,30.00
2022-09-05T11:02:47.318Z,30.10
2022-09-05T11:05:39.940Z,30.10
2022-09-05T11:08:38.423Z,30.10
2022-09-05T11:11:34.588Z,30.20
2022-09-05T11:14:49.321Z,30.20
2022-09-05T11:17:43.194Z,30.30
2022-09-05T11:20:46.211Z,30.30
2022-09-05T11:23:40.424Z,30.30
2022-09-05T11:26:42.311Z,30.30
2022-09-05T11:29:37.887Z,30.40
2022-09-05T11:39:19.486Z,30.40
2022-09-05T11:39:54.893Z,30.40
2022-09-05T11:40:59.152Z,30.40
2022-09-05T11:44:25.611Z,30.50
2022-09-05T11:48:06.278Z,30.40
2022-09-05T11:51:51.854Z,30.40
2022-09-05T11:55:21.043Z,30.40
2022-09-05T11:58:45.996Z,30.40
2022-09-05T12:01:44.834Z,30.40
2022-09-05T12:05:48.965Z,30.40
2022-09-05T12:08:06.394Z,30.40
2022-09-05T12:11:09.878Z,30.50
2022-09-05T12:14:20.915Z,30.50
2022-09-05T12:20:43.787Z,30.60
2022-09-05T12:24:28.504Z,30.60
2022-09-05T12:27:44.916Z,30.60
2022-09-05T12:30:16.336Z,30.60
2022-09-05T12:36:08.578Z,30.60
2022-09-05T12:40:53.948Z,30.70
2022-09-05T12:40:58.169Z,30.70
2022-09-05T12:42:08.264Z,30.50
2022-09-05T12:43:57.434Z,30.70
2022-09-05T12:46:24.292Z,30.70
2022-09-05T12:49:34.980Z,30.80
2022-09-05T12:52:42.426Z,30.80
2022-09-05T12:55:36.438Z,30.80
2022-09-05T13:03:01.614Z,30.80
2022-09-05T13:03:11.562Z,30.90
2022-09-05T13:05:01.781Z,30.80
2022-09-05T13:07:56.253Z,30.80
2022-09-05T13:14:48.187Z,30.80
2022-09-05T13:15:01.976Z,30.80
2022-09-05T13:17:07.536Z,30.80
2022-09-05T13:19:57.023Z,30.80
2022-09-05T13:22:48.741Z,30.80
2022-09-05T13:25:37.889Z,30.90
2022-09-05T13:28:36.072Z,30.80
2022-09-05T13:37:54.326Z,30.90
2022-09-05T13:38:12.464Z,30.90
2022-09-05T13:38:49.289Z,30.90
2022-09-05T13:41:28.743Z,30.90
2022-09-05T13:44:25.574Z,31.00
2022-09-05T13:46:58.982Z,31.00
2022-09-05T13:49:35.233Z,31.00
2022-09-05T13:52:35.722Z,31.00
2022-09-05T13:55:24.192Z,31.00
2022-09-05T13:57:59.873Z,31.10
2022-09-05T14:01:35.009Z,31.10
2022-09-05T14:05:05.947Z,31.10
2022-09-05T14:08:23.624Z,31.10
2022-09-05T14:11:31.317Z,31.10
2022-09-05T14:14:11.282Z,31.20
2022-09-05T14:16:54.267Z,31.20
2022-09-05T14:19:43.422Z,31.20
2022-09-05T14:22:33.494Z,31.10
2022-09-05T14:25:07.824Z,31.20
2022-09-05T14:27:45.325Z,31.20
2022-09-05T14:32:07.929Z,31.20
2022-09-05T14:37:42.187Z,31.20
2022-09-05T14:37:49.292Z,31.20
2022-09-05T14:40:30.451Z,31.20
2022-09-05T14:43:33.896Z,31.20
2022-09-05T14:46:35.094Z,31.20
2022-09-05T14:49:40.069Z,31.20
2022-09-05T14:52:20.325Z,31.20
2022-09-05T15:02:41.618Z,31.20
2022-09-05T15:02:49.219Z,31.20
2022-09-05T15:06:40.580Z,31.10
2022-09-05T15:11:25.933Z,31.10
2022-09-05T15:12:34.038Z,31.10
2022-09-05T15:15:25.950Z,31.10
2022-09-05T15:18:00.537Z,31.10
2022-09-05T15:20:35.848Z,31.10
2022-09-05T15:23:11.154Z,31.10
2022-09-05T15:25:49.327Z,31.10
2022-09-05T15:28:21.648Z,31.00
2022-09-05T15:31:01.652Z,31.00
2022-09-05T15:33:32.708Z,31.00
2022-09-05T15:36:04.258Z,31.00
2022-09-05T15:38:48.928Z,31.00
2022-09-05T15:41:27.179Z,31.00
2022-09-05T15:44:03.832Z,31.00
2022-09-05T15:46:49.406Z,31.00
2022-09-05T15:49:33.845Z,31.00
2022-09-05T15:52:06.444Z,30.90
2022-09-05T15:54:40.614Z,30.90
2022-09-05T15:57:17.441Z,30.90
2022-09-05T15:59:52.608Z,30.90
2022-09-05T16:02:28.254Z,30.90
2022-09-05T16:10:34.419Z,30.80
2022-09-05T16:10:35.541Z,30.80
2022-09-05T16:14:39.533Z,30.80
2022-09-05T16:23:13.779Z,30.80
2022-09-05T16:23:32.676Z,30.80
2022-09-05T16:23:39.537Z,30.80
2022-09-05T16:26:13.173Z,30.80
2022-09-05T16:28:52.614Z,30.70
2022-09-05T16:31:29.729Z,30.70
2022-09-05T16:34:00.957Z,30.70
2022-09-05T16:36:53.186Z,30.70
2022-09-05T16:39:42.755Z,30.70
2022-09-05T16:42:20.400Z,30.70
2022-09-05T16:44:59.974Z,30.60
2022-09-05T16:47:36.511Z,30.60
2022-09-05T16:50:23.990Z,30.60
2022-09-05T16:53:28.348Z,30.60
2022-09-05T16:56:03.473Z,30.50
2022-09-05T16:58:38.598Z,30.50
2022-09-05T17:01:29.399Z,30.50
2022-09-05T17:04:08.052Z,30.40
2022-09-05T17:06:55.068Z,30.40
2022-09-05T17:09:28.569Z,30.40
2022-09-05T17:12:02.136Z,30.30
2022-09-05T17:14:38.007Z,30.30
2022-09-05T17:18:04.610Z,30.20
2022-09-05T17:20:14.608Z,29.90
2022-09-05T17:25:58.553Z,29.60
2022-09-05T17:29:30.533Z,29.20
2022-09-05T17:29:49.644Z,28.90
2022-09-05T17:32:00.184Z,28.60
2022-09-05T17:35:18.627Z,28.30
2022-09-05T17:38:24.130Z,27.90
2022-09-05T17:41:37.024Z,27.60
2022-09-05T17:44:18.074Z,27.30
2022-09-05T17:47:07.382Z,27.00
2022-09-05T17:49:46.401Z,26.80
2022-09-05T17:52:23.427Z,26.60
2022-09-05T17:54:57.499Z,26.30
2022-09-05T17:57:41.376Z,26.20
2022-09-05T18:00:59.354Z,26.00
2022-09-05T18:04:14.569Z,25.80
2022-09-05T18:10:12.736Z,25.40
2022-09-05T18:13:31.755Z,25.30
2022-09-05T18:16:12.482Z,25.20
2022-09-05T18:19:33.703Z,25.00
2022-09-05T18:21:51.091Z,24.90
2022-09-05T18:24:33.348Z,24.80
2022-09-05T18:27:43.846Z,24.60
2022-09-05T18:30:12.232Z,24.60
2022-09-05T18:32:48.051Z,24.40
2022-09-05T18:35:37.497Z,24.40
2022-09-05T18:38:50.296Z,24.30
2022-09-05T18:41:25.275Z,24.20
2022-09-05T18:44:13.300Z,24.20
2022-09-05T18:46:54.929Z,24.10
2022-09-05T18:50:22.429Z,24.10
2022-09-05T18:52:23.744Z,24.00
2022-09-05T18:56:11.297Z,24.00
2022-09-05T18:57:58.979Z,24.00
2022-09-05T19:00:44.272Z,23.90
2022-09-05T19:03:24.868Z,23.90
2022-09-05T19:06:37.203Z,23.80
2022-09-05T19:08:57.197Z,23.80
2022-09-05T19:11:33.550Z,23.70
2022-09-05T19:14:26.351Z,23.70
2022-09-05T19:17:10.107Z,23.70
2022-09-05T19:20:31.384Z,23.60
2022-09-05T19:23:10.647Z,23.60
2022-09-05T19:25:44.899Z,23.60
2022-09-05T19:35:33.300Z,23.60
2022-09-05T19:36:55.080Z,23.50
2022-09-05T19:37:13.584Z,23.50
2022-09-05T19:37:30.443Z,23.50
2022-09-05T19:44:12.477Z,23.50
2022-09-05T19:47:37.193Z,23.50
2022-09-05T19:47:50.283Z,23.50
2022-09-05T19:48:28.351Z,23.40
2022-09-05T19:51:16.528Z,23.40
2022-09-05T19:54:01.338Z,23.40
2022-09-05T19:56:38.877Z,23.30
2022-09-05T19:59:18.818Z,23.30
2022-09-05T20:01:49.095Z,23.30
2022-09-05T20:04:19.063Z,23.30
2022-09-05T20:06:50.472Z,23.20
2022-09-05T20:09:24.032Z,23.20
2022-09-05T20:11:57.900Z,23.20
2022-09-05T20:14:30.697Z,23.20
2022-09-05T20:17:20.935Z,23.10
2022-09-05T20:19:51.195Z,23.10
2022-09-05T20:22:49.469Z,23.10
2022-09-05T20:25:36.706Z,23.10
2022-09-05T20:28:10.293Z,23.10
2022-09-05T20:30:45.000Z,23.10
2022-09-05T20:33:21.719Z,23.00
2022-09-05T20:43:10.885Z,23.00
2022-09-05T20:43:22.289Z,23.00
2022-09-05T20:43:24.001Z,23.00
2022-09-05T20:44:41.637Z,23.00
2022-09-05T20:54:08.100Z,23.00
2022-09-05T20:54:08.675Z,23.00
2022-09-05T20:54:14.521Z,22.90
2022-09-05T20:56:07.530Z,22.90
2022-09-05T20:58:40.156Z,22.90
2022-09-05T21:01:20.864Z,22.90
2022-09-05T21:03:57.465Z,22.90
2022-09-05T21:06:33.522Z,22.80
2022-09-05T21:09:24.485Z,22.80
2022-09-05T21:11:55.798Z,22.80
2022-09-05T21:14:29.697Z,22.80
2022-09-05T21:17:04.884Z,22.70
2022-09-05T21:19:54.194Z,22.70
2022-09-05T21:22:31.234Z,22.70
2022-09-05T21:25:18.511Z,22.70
2022-09-05T21:28:03.668Z,22.70
2022-09-05T21:30:36.908Z,22.70
2022-09-05T21:33:16.708Z,22.60
2022-09-05T21:35:50.633Z,22.60
2022-09-05T21:38:32.195Z,22.60
2022-09-05T21:41:03.135Z,22.60
2022-09-05T21:47:40.417Z,22.50
2022-09-05T21:47:48.740Z,22.50
2022-09-05T21:49:25.865Z,22.50
2022-09-05T21:51:55.301Z,22.50
2022-09-05T21:59:15.201Z,22.50
2022-09-05T21:59:16.154Z,22.50
2022-09-05T22:00:11.893Z,22.40
2022-09-05T22:02:49.808Z,22.40
2022-09-05T22:05:20.237Z,22.40
2022-09-05T22:07:53.520Z,22.40
2022-09-05T22:10:23.339Z,22.40
2022-09-05T22:13:09.390Z,22.30
2022-09-05T22:15:39.135Z,22.30
2022-09-05T22:18:17.344Z,22.30
2022-09-05T22:21:31.887Z,22.30
2022-09-05T22:23:45.461Z,22.20
2022-09-05T22:26:15.829Z,22.20
2022-09-05T22:28:49.088Z,22.20
2022-09-05T22:31:18.847Z,22.20
2022-09-05T22:33:51.237Z,22.20
2022-09-05T22:36:20.832Z,22.20
2022-09-05T22:38:50.244Z,22.10
2022-09-05T22:41:30.420Z,22.10
2022-09-05T22:44:00.666Z,22.10
2022-09-05T22:46:30.630Z,22.10
2022-09-05T22:49:01.419Z,22.10
2022-09-05T22:51:31.055Z,22.10
2022-09-05T22:54:00.467Z,22.10
2022-09-05T22:56:36.117Z,22.10
2022-09-05T22:59:06.560Z,22.10
2022-09-05T23:01:36.336Z,22.10
2022-09-05T23:04:07.467Z,22.10
2022-09-05T23:06:37.109Z,22.10
2022-09-05T23:09:06.551Z,22.00
2022-09-05T23:11:36.401Z,22.00
2022-09-05T23:14:05.836Z,22.00
2022-09-05T23:16:35.245Z,22.00
2022-09-05T23:19:06.038Z,22.00
2022-09-05T23:21:36.199Z,22.00
2022-09-05T23:24:06.043Z,22.00
2022-09-05T23:26:35.460Z,22.00
2022-09-05T23:29:05.031Z,22.00
2022-09-05T23:31:34.447Z,22.00
2022-09-05T23:34:03.910Z,22.00
2022-09-05T23:36:34.770Z,22.00
2022-09-05T23:39:04.303Z,22.00
2022-09-05T23:41:33.811Z,22.00
2022-09-05T23:44:03.989Z,22.00
2022-09-05T23:46:33.497Z,22.00
2022-09-05T23:49:02.909Z,21.90
2022-09-05T23:51:33.696Z,22.00
2022-09-05T23:54:03.147Z,21.90
2022-09-05T23:56:32.580Z,21.90
2022-09-05T23:59:02.048Z,21.90
